aviador You're here:

KBDR Decoded Metar

STRATFORD in CT, USA
Report Time2017-11-18 09:52:00
UTC Time2017-11-18 10:26:44
Flight Rules vfr VFR
Wind290° at 04 kt
W.Decomp.*RWY 29: 3.9 kt HW 0.9 kt RCW
RWY 24: 1.8 kt HW 3.6 kt RCW
W.Rank290° ranks 16
Current wind is below 290° avg. (9.5)
Visibility9999 m
Phenomena:N/A
Clouds:N/A
Expected CloudBase > 2,400 ft AGL from Temp-Dew spread
CeilingNone
Temp-1°C (ISA -16)
Dew Point-7°C (64% RH)
AAT-5.2°C
QNH1016 hPa
Density Alt-1,985 ft
Elevation23 ft
Report Wrong Elevation
Raw Report
KBDR 180952Z AUTO 29004KT 10SM CLR M01/M07 A3000 RMK AO2 SLP159
T10111072=

Extra information for KBDR:More info

Metar Taf Metar & Taf Last 4 Metars F.Rules Stats Wind Profile Meteogram Temp Stats Airport Information Weather charts Add Link Nearby VenuesMetar ALERT Operation Metar Decoded Social comments

AIRNAV info for KBDR